createdAt,value
2023-01-12T00:00:20.305Z,10.71
2023-01-12T00:01:23.346Z,10.68
2023-01-12T00:02:25.335Z,10.71
2023-01-12T00:03:28.700Z,10.74
2023-01-12T00:04:33.634Z,10.72
2023-01-12T00:05:35.860Z,10.71
2023-01-12T00:06:37.933Z,10.73
2023-01-12T00:07:40.575Z,10.74
2023-01-12T00:08:42.525Z,10.76
2023-01-12T00:09:45.460Z,10.71
2023-01-12T00:10:47.646Z,10.77
2023-01-12T00:11:49.238Z,10.83
2023-01-12T00:12:50.945Z,10.79
2023-01-12T00:13:52.653Z,10.69
2023-01-12T00:14:54.752Z,10.69
2023-01-12T00:16:16.069Z,10.66
2023-01-12T00:17:19.201Z,10.73
2023-01-12T00:18:22.022Z,10.74
2023-01-12T00:19:23.973Z,10.78
2023-01-12T00:20:26.427Z,10.80
2023-01-12T00:21:29.500Z,10.80
2023-01-12T00:22:31.144Z,10.77
2023-01-12T00:23:33.354Z,10.79
2023-01-12T00:24:41.625Z,10.88
2023-01-12T00:25:43.293Z,10.90
2023-01-12T00:26:46.251Z,10.75
2023-01-12T00:27:49.564Z,10.74
2023-01-12T00:28:51.297Z,10.76
2023-01-12T00:29:53.974Z,10.73
2023-01-12T00:31:02.876Z,10.73
2023-01-12T00:32:05.446Z,10.77
2023-01-12T00:33:07.612Z,10.69
2023-01-12T00:34:15.057Z,10.74
2023-01-12T00:35:17.925Z,10.76
2023-01-12T00:36:19.665Z,10.81
2023-01-12T00:37:22.066Z,10.75
2023-01-12T00:38:25.064Z,10.76
2023-01-12T00:39:26.593Z,10.79
2023-01-12T00:40:29.430Z,10.81
2023-01-12T00:41:49.825Z,10.81
2023-01-12T00:43:10.865Z,10.85
2023-01-12T00:44:31.634Z,10.89
2023-01-12T00:45:35.940Z,10.86
2023-01-12T00:46:37.643Z,10.82
2023-01-12T00:47:39.319Z,10.79
2023-01-12T00:48:41.137Z,10.91
2023-01-12T00:49:43.707Z,10.95
2023-01-12T00:50:48.581Z,10.97
2023-01-12T00:51:50.811Z,11.06
2023-01-12T00:52:53.028Z,11.09
2023-01-12T00:53:54.938Z,11.12
2023-01-12T00:54:56.801Z,11.18
2023-01-12T00:56:05.301Z,11.15
2023-01-12T00:57:07.260Z,11.20
2023-01-12T00:58:11.117Z,11.19
2023-01-12T00:59:13.281Z,11.12
2023-01-12T01:00:17.477Z,11.16
2023-01-12T01:01:20.153Z,11.19
2023-01-12T01:02:23.991Z,11.27
2023-01-12T01:03:26.423Z,11.25
2023-01-12T01:04:28.089Z,11.26
2023-01-12T01:05:30.218Z,11.34
2023-01-12T01:06:33.761Z,11.36
2023-01-12T01:07:35.557Z,11.33
2023-01-12T01:08:37.619Z,11.34
2023-01-12T01:09:41.111Z,11.36
2023-01-12T01:10:42.907Z,11.32
2023-01-12T01:11:44.940Z,11.25
2023-01-12T01:12:49.653Z,11.17
2023-01-12T01:13:52.468Z,11.20
2023-01-12T01:14:54.933Z,11.16
2023-01-12T01:15:59.451Z,11.15
2023-01-12T01:17:02.488Z,11.16
2023-01-12T01:18:04.073Z,11.20
2023-01-12T01:19:07.028Z,11.27
2023-01-12T01:20:11.160Z,11.32
2023-01-12T01:21:13.325Z,11.38
2023-01-12T01:22:15.563Z,11.44
2023-01-12T01:23:17.758Z,11.47
2023-01-12T01:24:19.381Z,11.44
2023-01-12T01:25:21.555Z,11.44
2023-01-12T01:26:23.335Z,11.46
2023-01-12T01:27:26.930Z,11.49
2023-01-12T01:28:28.655Z,11.50
2023-01-12T01:29:31.419Z,11.46
2023-01-12T01:30:33.561Z,11.40
2023-01-12T01:31:35.708Z,11.43
2023-01-12T01:32:37.601Z,11.49
2023-01-12T01:33:39.450Z,11.52
2023-01-12T01:34:41.183Z,11.57
2023-01-12T01:35:44.124Z,11.55
2023-01-12T01:36:49.502Z,11.57
2023-01-12T01:37:51.592Z,11.53
2023-01-12T01:38:53.361Z,11.56
2023-01-12T01:39:56.309Z,11.57
2023-01-12T01:40:58.129Z,11.57
2023-01-12T01:42:01.434Z,11.56
2023-01-12T01:43:03.480Z,11.58
2023-01-12T01:44:24.220Z,11.55
2023-01-12T01:45:25.859Z,11.57
2023-01-12T01:46:47.754Z,11.58
2023-01-12T01:47:50.522Z,11.53
2023-01-12T01:48:54.236Z,11.47
2023-01-12T01:49:57.457Z,11.50
2023-01-12T01:50:59.945Z,11.54
2023-01-12T01:52:19.179Z,11.60
2023-01-12T01:53:21.874Z,11.60
2023-01-12T01:54:23.559Z,11.59
2023-01-12T01:55:27.071Z,11.61
2023-01-12T01:56:30.975Z,11.59
2023-01-12T01:58:01.720Z,11.60
2023-01-12T01:59:06.707Z,11.65
2023-01-12T02:00:08.932Z,11.70
2023-01-12T02:01:11.245Z,11.70
2023-01-12T02:02:13.706Z,11.61
2023-01-12T02:03:15.914Z,11.50
2023-01-12T02:04:18.143Z,11.43
2023-01-12T02:05:22.898Z,11.42
2023-01-12T02:06:25.908Z,11.42
2023-01-12T02:07:27.986Z,11.43
2023-01-12T02:08:44.457Z,11.46
2023-01-12T02:09:47.002Z,11.48
2023-01-12T02:10:48.921Z,11.52
2023-01-12T02:12:09.131Z,11.49
2023-01-12T02:13:29.248Z,11.47
2023-01-12T02:14:51.412Z,11.53
2023-01-12T02:16:17.113Z,11.54
2023-01-12T02:17:21.743Z,11.59
2023-01-12T02:18:42.234Z,11.56
2023-01-12T02:19:46.463Z,11.53
2023-01-12T02:21:00.150Z,11.53
2023-01-12T02:22:06.621Z,11.50
2023-01-12T02:24:41.882Z,11.42
2023-01-12T02:25:50.338Z,11.46
2023-01-12T02:27:04.277Z,11.48
2023-01-12T02:28:26.673Z,11.46
2023-01-12T02:29:35.153Z,11.44
2023-01-12T02:30:58.430Z,11.44
2023-01-12T02:32:28.568Z,11.31
2023-01-12T02:33:41.562Z,11.26
2023-01-12T02:35:13.208Z,11.26
2023-01-12T02:36:17.677Z,11.33
2023-01-12T02:37:29.504Z,11.25
2023-01-12T02:39:00.689Z,11.29
2023-01-12T02:40:16.441Z,11.32
2023-01-12T02:41:48.587Z,11.38
2023-01-12T02:42:55.143Z,11.35
2023-01-12T02:44:02.907Z,11.38
2023-01-12T02:45:19.770Z,11.39
2023-01-12T02:46:22.776Z,11.42
2023-01-12T02:47:52.932Z,11.43
2023-01-12T02:48:55.791Z,11.49
2023-01-12T02:50:01.841Z,11.52
2023-01-12T02:51:22.316Z,11.52
2023-01-12T02:52:25.793Z,11.46
2023-01-12T02:53:51.020Z,11.47
2023-01-12T02:54:54.197Z,11.51
2023-01-12T02:55:58.993Z,11.55
2023-01-12T02:57:07.975Z,11.53
2023-01-12T02:58:10.765Z,11.46
2023-01-12T02:59:16.662Z,11.49
2023-01-12T03:00:22.974Z,11.52
2023-01-12T03:01:33.914Z,11.52
2023-01-12T03:02:36.626Z,11.54
2023-01-12T03:03:42.652Z,11.57
2023-01-12T03:04:45.668Z,11.55
2023-01-12T03:05:48.029Z,11.59
2023-01-12T03:06:58.586Z,11.58
2023-01-12T03:08:11.634Z,11.60
2023-01-12T03:09:15.998Z,11.62
2023-01-12T03:10:38.415Z,11.57
2023-01-12T03:11:42.132Z,11.52
2023-01-12T03:12:44.005Z,11.57
2023-01-12T03:13:56.474Z,11.54
2023-01-12T03:15:00.530Z,11.53
2023-01-12T03:16:03.343Z,11.46
2023-01-12T03:17:07.740Z,11.31
2023-01-12T03:18:13.791Z,11.26
2023-01-12T03:19:16.478Z,11.33
2023-01-12T03:20:28.544Z,11.42
2023-01-12T03:21:35.644Z,11.44
2023-01-12T03:22:38.255Z,11.50
2023-01-12T03:23:45.121Z,11.47
2023-01-12T03:24:49.667Z,11.43
2023-01-12T03:25:52.293Z,11.41
2023-01-12T03:26:56.450Z,11.47
2023-01-12T03:27:59.806Z,11.50
2023-01-12T03:29:23.731Z,11.58
2023-01-12T03:30:37.038Z,11.68
2023-01-12T03:31:45.364Z,11.64
2023-01-12T03:32:47.399Z,11.56
2023-01-12T03:33:54.055Z,11.56
2023-01-12T03:35:00.582Z,11.50
2023-01-12T03:36:11.988Z,11.53
2023-01-12T03:37:22.397Z,11.54
2023-01-12T03:38:38.465Z,11.49
2023-01-12T03:39:52.900Z,11.45
2023-01-12T03:41:01.423Z,11.45
2023-01-12T03:42:07.149Z,11.46
2023-01-12T03:43:14.322Z,11.47
2023-01-12T03:44:19.721Z,11.43
2023-01-12T03:45:31.087Z,11.38
2023-01-12T03:46:40.968Z,11.32
2023-01-12T03:47:43.982Z,11.28
2023-01-12T03:48:48.421Z,11.27
2023-01-12T03:49:53.443Z,11.25
2023-01-12T03:51:21.494Z,11.28
2023-01-12T03:52:23.898Z,11.22
2023-01-12T03:53:28.709Z,11.27
2023-01-12T03:54:33.043Z,11.28
2023-01-12T03:55:43.987Z,11.33
2023-01-12T03:56:48.790Z,11.39
2023-01-12T03:57:51.747Z,11.42
2023-01-12T04:00:10.605Z,11.44
2023-01-12T04:01:19.283Z,11.48
2023-01-12T04:02:27.941Z,11.53
2023-01-12T04:03:34.239Z,11.50
2023-01-12T04:04:35.934Z,11.54
2023-01-12T04:05:38.130Z,11.62
2023-01-12T04:06:42.392Z,11.66
2023-01-12T04:07:45.300Z,11.67
2023-01-12T04:08:52.843Z,11.68
2023-01-12T04:10:20.537Z,11.67
2023-01-12T04:11:42.140Z,11.67
2023-01-12T04:12:44.494Z,11.67
2023-01-12T04:13:46.204Z,11.64
2023-01-12T04:14:51.781Z,11.67
2023-01-12T04:15:55.407Z,11.71
2023-01-12T04:17:06.701Z,11.73
2023-01-12T04:18:14.909Z,11.72
2023-01-12T04:19:26.239Z,11.73
2023-01-12T04:20:31.770Z,11.73
2023-01-12T04:21:52.301Z,11.76
2023-01-12T04:22:57.268Z,11.69
2023-01-12T04:24:04.899Z,11.75
2023-01-12T04:25:09.675Z,11.79
2023-01-12T04:26:17.859Z,11.82
2023-01-12T04:27:19.891Z,11.80
2023-01-12T04:28:21.776Z,11.74
2023-01-12T04:29:26.381Z,11.35
2023-01-12T04:30:30.532Z,11.69
2023-01-12T04:31:35.547Z,11.70
2023-01-12T04:32:38.970Z,11.56
2023-01-12T04:33:47.016Z,11.50
2023-01-12T04:34:51.352Z,11.43
2023-01-12T04:35:54.731Z,11.41
2023-01-12T04:36:57.200Z,11.41
2023-01-12T04:37:58.910Z,11.38
2023-01-12T04:39:04.296Z,11.42
2023-01-12T04:40:11.107Z,11.48
2023-01-12T04:41:12.891Z,11.52
2023-01-12T04:42:36.007Z,11.54
2023-01-12T04:43:38.024Z,11.54
2023-01-12T04:44:44.665Z,11.54
2023-01-12T04:45:49.592Z,11.53
2023-01-12T04:46:53.172Z,11.53
2023-01-12T04:48:06.337Z,11.49
2023-01-12T04:49:11.465Z,11.44
2023-01-12T04:50:14.073Z,11.45
2023-01-12T04:51:16.392Z,11.45
2023-01-12T04:52:18.469Z,11.48
2023-01-12T04:53:32.259Z,11.54
2023-01-12T04:54:36.506Z,11.57
2023-01-12T04:55:40.714Z,11.59
2023-01-12T04:56:44.847Z,11.65
2023-01-12T04:57:47.320Z,11.65
2023-01-12T04:58:51.323Z,11.63
2023-01-12T04:59:56.239Z,11.66
2023-01-12T05:00:59.421Z,11.74
2023-01-12T05:02:01.224Z,11.74
2023-01-12T05:03:04.515Z,11.80
2023-01-12T05:04:11.512Z,11.73
2023-01-12T05:05:18.811Z,11.76
2023-01-12T05:08:01.795Z,11.65
2023-01-12T05:09:23.322Z,11.62
2023-01-12T05:10:36.662Z,11.61
2023-01-12T05:11:44.882Z,11.57
2023-01-12T05:12:50.692Z,11.62
2023-01-12T05:15:11.931Z,11.71
2023-01-12T05:16:21.009Z,11.70
2023-01-12T05:17:23.984Z,11.61
2023-01-12T05:18:25.868Z,11.57
2023-01-12T05:19:28.624Z,11.58
2023-01-12T05:20:30.641Z,11.57
2023-01-12T05:21:32.534Z,11.61
2023-01-12T05:22:34.515Z,11.63
2023-01-12T05:23:44.279Z,11.61
2023-01-12T05:27:42.507Z,11.45
2023-01-12T05:28:47.892Z,11.47
2023-01-12T05:31:09.627Z,11.55
2023-01-12T05:32:12.825Z,11.60
2023-01-12T05:33:18.800Z,11.62
2023-01-12T05:34:22.659Z,11.65
2023-01-12T05:35:24.733Z,11.66
2023-01-12T05:36:29.020Z,11.63
2023-01-12T05:37:34.356Z,11.65
2023-01-12T05:38:37.858Z,11.69
2023-01-12T05:39:41.923Z,11.63
2023-01-12T05:40:45.079Z,11.52
2023-01-12T05:42:11.237Z,11.48
2023-01-12T05:43:33.819Z,11.49
2023-01-12T05:44:37.451Z,11.53
2023-01-12T05:45:39.369Z,11.56
2023-01-12T05:46:43.749Z,11.59
2023-01-12T05:47:46.719Z,11.61
2023-01-12T05:48:50.220Z,11.65
2023-01-12T05:49:55.293Z,11.66
2023-01-12T05:51:01.800Z,11.67
2023-01-12T05:52:03.561Z,11.67
2023-01-12T05:53:05.338Z,11.65
2023-01-12T05:54:07.660Z,11.62
2023-01-12T05:55:11.307Z,11.54
2023-01-12T05:56:19.340Z,11.54
2023-01-12T05:57:21.382Z,11.39
2023-01-12T05:58:23.600Z,11.45
2023-01-12T05:59:25.701Z,11.49
2023-01-12T06:00:28.108Z,11.52
2023-01-12T06:01:30.259Z,11.57
2023-01-12T06:02:32.662Z,11.62
2023-01-12T06:03:35.619Z,11.63
2023-01-12T06:04:37.419Z,11.59
2023-01-12T06:05:38.992Z,11.58
2023-01-12T06:06:41.111Z,11.60
2023-01-12T06:07:43.208Z,11.62
2023-01-12T06:08:45.740Z,11.66
2023-01-12T06:09:47.575Z,11.68
2023-01-12T06:10:49.780Z,11.71
2023-01-12T06:12:10.166Z,11.72
2023-01-12T06:13:32.611Z,11.73
2023-01-12T06:14:35.580Z,11.70
2023-01-12T06:15:37.381Z,11.68
2023-01-12T06:16:39.557Z,11.67
2023-01-12T06:17:41.244Z,11.68
2023-01-12T06:18:42.974Z,11.60
2023-01-12T06:19:44.651Z,11.60
2023-01-12T06:20:47.550Z,11.62
2023-01-12T06:21:49.683Z,11.62
2023-01-12T06:22:51.961Z,11.55
2023-01-12T06:23:53.997Z,11.55
2023-01-12T06:24:55.688Z,11.57
2023-01-12T06:26:00.424Z,11.56
2023-01-12T06:27:04.295Z,11.60
2023-01-12T06:28:07.150Z,11.65
2023-01-12T06:29:09.270Z,11.69
2023-01-12T06:30:11.311Z,11.72
2023-01-12T06:31:13.080Z,11.75
2023-01-12T06:32:15.233Z,11.75
2023-01-12T06:33:17.386Z,11.76
2023-01-12T06:34:20.531Z,11.72
2023-01-12T06:35:22.293Z,11.69
2023-01-12T06:36:24.660Z,11.61
2023-01-12T06:37:26.707Z,11.59
2023-01-12T06:38:29.046Z,11.61
2023-01-12T06:39:30.963Z,11.59
2023-01-12T06:40:33.148Z,11.59
2023-01-12T06:41:54.782Z,11.58
2023-01-12T06:42:57.443Z,11.49
2023-01-12T06:43:59.420Z,11.52
2023-01-12T06:45:03.868Z,11.51
2023-01-12T06:46:05.863Z,11.55
2023-01-12T06:47:07.956Z,11.56
2023-01-12T06:48:10.211Z,11.50
2023-01-12T06:49:12.509Z,11.49
2023-01-12T06:50:14.712Z,11.48
2023-01-12T06:51:16.273Z,11.48
2023-01-12T06:52:19.778Z,11.46
2023-01-12T06:53:21.829Z,11.50
2023-01-12T06:54:23.438Z,11.55
2023-01-12T06:55:25.456Z,11.47
2023-01-12T06:56:27.679Z,11.49
2023-01-12T06:57:29.624Z,11.52
2023-01-12T06:58:31.921Z,11.52
2023-01-12T06:59:34.834Z,11.54
2023-01-12T07:00:37.767Z,11.52
2023-01-12T07:01:40.630Z,11.55
2023-01-12T07:02:42.482Z,11.59
2023-01-12T07:03:44.705Z,11.59
2023-01-12T07:04:47.075Z,11.57
2023-01-12T07:05:50.983Z,11.52
2023-01-12T07:06:55.505Z,11.42
2023-01-12T07:07:59.114Z,11.48
2023-01-12T07:09:01.272Z,11.44
2023-01-12T07:10:03.437Z,11.40
2023-01-12T07:11:08.054Z,11.40
2023-01-12T07:12:10.267Z,11.36
2023-01-12T07:13:12.436Z,11.25
2023-01-12T07:14:14.773Z,11.30
2023-01-12T07:15:17.179Z,11.35
2023-01-12T07:16:19.340Z,11.36
2023-01-12T07:17:21.584Z,11.41
2023-01-12T07:18:23.666Z,11.41
2023-01-12T07:19:25.392Z,11.48
2023-01-12T07:20:28.806Z,11.53
2023-01-12T07:21:33.045Z,11.62
2023-01-12T07:22:36.621Z,11.68
2023-01-12T07:23:42.396Z,11.71
2023-01-12T07:24:44.068Z,11.72
2023-01-12T07:25:45.797Z,11.74
2023-01-12T07:26:50.419Z,11.72
2023-01-12T07:27:52.949Z,11.67
2023-01-12T07:28:56.751Z,11.65
2023-01-12T07:30:00.224Z,11.61
2023-01-12T07:31:03.638Z,11.62
2023-01-12T07:32:05.781Z,11.63
2023-01-12T07:33:08.269Z,11.64
2023-01-12T07:34:10.956Z,11.66
2023-01-12T07:35:13.010Z,11.66
2023-01-12T07:36:14.797Z,11.70
2023-01-12T07:37:17.077Z,11.66
2023-01-12T07:38:18.726Z,11.69
2023-01-12T07:39:21.320Z,11.71
2023-01-12T07:40:23.722Z,11.69
2023-01-12T07:41:43.877Z,11.66
2023-01-12T07:42:47.742Z,11.60
2023-01-12T07:43:50.410Z,11.58
2023-01-12T07:44:52.193Z,11.53
2023-01-12T07:45:57.174Z,11.55
2023-01-12T07:47:00.154Z,11.59
2023-01-12T07:48:02.687Z,11.63
2023-01-12T07:49:11.621Z,11.65
2023-01-12T07:50:13.261Z,11.62
2023-01-12T07:51:15.341Z,11.49
2023-01-12T07:52:17.366Z,11.47
2023-01-12T07:53:19.469Z,11.45
2023-01-12T07:54:21.581Z,11.41
2023-01-12T07:55:23.825Z,11.41
2023-01-12T07:56:27.315Z,11.41
2023-01-12T07:57:29.823Z,11.40
2023-01-12T07:58:32.171Z,11.35
2023-01-12T07:59:35.361Z,11.36
2023-01-12T08:00:38.254Z,11.32
2023-01-12T08:01:41.347Z,11.28
2023-01-12T08:02:43.538Z,11.32
2023-01-12T08:03:45.418Z,11.30
2023-01-12T08:04:47.688Z,11.27
2023-01-12T08:05:49.920Z,11.31
2023-01-12T08:06:51.633Z,11.33
2023-01-12T08:07:53.782Z,11.40
2023-01-12T08:08:55.698Z,11.40
2023-01-12T08:09:57.374Z,11.36
2023-01-12T08:11:05.479Z,11.41
2023-01-12T08:12:08.731Z,11.47
2023-01-12T08:13:10.486Z,11.51
2023-01-12T08:14:13.209Z,11.53
2023-01-12T08:15:17.928Z,11.55
2023-01-12T08:16:21.106Z,11.54
2023-01-12T08:17:26.869Z,11.47
2023-01-12T08:18:30.247Z,11.50
2023-01-12T08:19:55.260Z,11.52
2023-01-12T08:20:57.752Z,11.54
2023-01-12T08:22:00.188Z,11.52
2023-01-12T08:23:04.159Z,11.53
2023-01-12T08:24:06.963Z,11.53
2023-01-12T08:25:15.738Z,11.50
2023-01-12T08:26:18.973Z,11.51
2023-01-12T08:27:22.646Z,11.51
2023-01-12T08:28:27.426Z,11.48
2023-01-12T08:29:34.088Z,11.46
2023-01-12T08:30:36.441Z,11.54
2023-01-12T08:31:38.025Z,11.55
2023-01-12T08:32:39.567Z,11.54
2023-01-12T08:33:41.666Z,11.52
2023-01-12T08:34:44.780Z,11.53
2023-01-12T08:35:46.890Z,11.56
2023-01-12T08:36:48.783Z,11.55
2023-01-12T08:37:50.602Z,11.58
2023-01-12T08:38:52.678Z,11.60
2023-01-12T08:39:54.741Z,11.61
2023-01-12T08:41:15.753Z,11.61
2023-01-12T08:42:19.546Z,11.64
2023-01-12T08:43:41.810Z,11.67
2023-01-12T08:44:43.524Z,11.66
2023-01-12T08:45:45.514Z,11.67
2023-01-12T08:46:50.713Z,11.69
2023-01-12T08:47:53.537Z,11.66
2023-01-12T08:48:55.709Z,11.66
2023-01-12T08:49:57.996Z,11.61
2023-01-12T08:51:00.170Z,11.60
2023-01-12T08:52:02.117Z,11.61
2023-01-12T08:53:04.543Z,11.63
2023-01-12T08:54:06.938Z,11.63
2023-01-12T08:55:11.262Z,11.67
2023-01-12T08:56:13.244Z,11.76
2023-01-12T08:57:16.410Z,11.73
2023-01-12T08:58:18.556Z,11.63
2023-01-12T08:59:20.940Z,11.66
2023-01-12T09:00:22.928Z,11.71
2023-01-12T09:01:24.524Z,11.67
2023-01-12T09:02:27.576Z,11.64
2023-01-12T09:03:29.368Z,11.64
2023-01-12T09:04:31.058Z,11.65
2023-01-12T09:05:33.545Z,11.66
2023-01-12T09:06:39.579Z,11.59
2023-01-12T09:07:43.268Z,11.54
2023-01-12T09:08:45.431Z,11.54
2023-01-12T09:09:47.226Z,11.50
2023-01-12T09:10:49.233Z,11.51
2023-01-12T09:11:51.653Z,11.54
2023-01-12T09:12:54.613Z,11.58
2023-01-12T09:13:58.759Z,11.62
2023-01-12T09:15:02.056Z,11.67
2023-01-12T09:16:12.352Z,11.73
2023-01-12T09:17:15.927Z,11.76
2023-01-12T09:18:19.686Z,11.79
2023-01-12T09:19:22.343Z,11.80
2023-01-12T09:20:24.619Z,11.82
2023-01-12T09:21:27.196Z,11.84
2023-01-12T09:22:29.817Z,11.73
2023-01-12T09:23:31.979Z,11.79
2023-01-12T09:24:34.521Z,11.75
2023-01-12T09:25:37.493Z,11.81
2023-01-12T09:26:45.562Z,11.79
2023-01-12T09:27:47.591Z,11.84
2023-01-12T09:28:49.280Z,11.84
2023-01-12T09:29:52.041Z,11.82
2023-01-12T09:30:54.184Z,11.88
2023-01-12T09:31:58.060Z,11.89
2023-01-12T09:33:00.683Z,11.89
2023-01-12T09:34:03.380Z,11.89
2023-01-12T09:35:06.843Z,11.88
2023-01-12T09:36:09.617Z,11.87
2023-01-12T09:37:13.369Z,11.93
2023-01-12T09:38:16.064Z,11.97
2023-01-12T09:39:27.477Z,12.01
2023-01-12T09:40:30.450Z,12.00
2023-01-12T09:41:53.509Z,11.96
2023-01-12T09:43:14.308Z,11.91
2023-01-12T09:44:48.186Z,11.91
2023-01-12T09:46:08.643Z,11.85
2023-01-12T09:47:16.302Z,11.87
2023-01-12T09:48:21.604Z,11.89
2023-01-12T09:49:25.268Z,11.89
2023-01-12T09:50:28.480Z,11.83
2023-01-12T09:51:36.483Z,11.84
2023-01-12T09:52:40.177Z,11.85
2023-01-12T09:53:42.369Z,11.86
2023-01-12T09:54:44.670Z,11.86
2023-01-12T09:56:04.617Z,11.87
2023-01-12T09:57:29.207Z,11.91
2023-01-12T09:58:52.084Z,11.71
2023-01-12T09:59:58.132Z,11.73
2023-01-12T10:01:02.859Z,11.71
2023-01-12T10:02:04.633Z,11.70
2023-01-12T10:03:24.863Z,11.75
2023-01-12T10:04:27.204Z,11.80
2023-01-12T10:05:39.612Z,11.80
2023-01-12T10:06:42.579Z,11.81
2023-01-12T10:07:45.645Z,11.82
2023-01-12T10:08:51.360Z,11.89
2023-01-12T10:09:53.031Z,11.89
2023-01-12T10:10:57.721Z,11.94
2023-01-12T10:12:14.527Z,11.98
2023-01-12T10:13:16.625Z,11.91
2023-01-12T10:14:21.253Z,11.89
2023-01-12T10:15:37.686Z,11.86
2023-01-12T10:16:45.360Z,11.83
2023-01-12T10:17:51.620Z,11.84
2023-01-12T10:18:54.815Z,11.85
2023-01-12T10:20:07.315Z,11.89
2023-01-12T10:21:09.475Z,11.91
2023-01-12T10:22:38.902Z,11.94
2023-01-12T10:23:40.700Z,11.90
2023-01-12T10:24:43.193Z,11.89
2023-01-12T10:25:48.399Z,11.91
2023-01-12T10:26:51.907Z,11.98
2023-01-12T10:27:54.615Z,11.99
2023-01-12T10:28:56.838Z,12.05
2023-01-12T10:30:01.369Z,12.07
2023-01-12T10:31:03.223Z,12.05
2023-01-12T10:32:05.897Z,12.05
2023-01-12T10:33:12.593Z,12.00
2023-01-12T10:34:16.086Z,12.02
2023-01-12T10:35:19.889Z,12.05
2023-01-12T10:36:21.571Z,12.07
2023-01-12T10:37:23.670Z,12.10
2023-01-12T10:38:29.606Z,12.11
2023-01-12T10:39:32.462Z,12.07
2023-01-12T10:40:35.245Z,12.06
2023-01-12T10:41:40.359Z,12.04
2023-01-12T10:43:02.367Z,12.00
2023-01-12T10:44:11.537Z,12.00
2023-01-12T10:45:19.376Z,12.03
2023-01-12T10:46:22.553Z,12.11
2023-01-12T10:47:26.481Z,12.13
2023-01-12T10:48:28.473Z,12.08
2023-01-12T10:49:30.629Z,12.09
2023-01-12T10:50:33.970Z,12.11
2023-01-12T10:51:36.110Z,12.08
2023-01-12T10:52:38.945Z,12.07
2023-01-12T10:53:50.941Z,12.04
2023-01-12T10:54:55.572Z,12.03
2023-01-12T10:55:58.234Z,12.02
2023-01-12T10:57:20.461Z,12.02
2023-01-12T10:58:29.436Z,12.05
2023-01-12T10:59:35.125Z,12.03
2023-01-12T11:00:37.154Z,12.00
2023-01-12T11:01:49.795Z,12.05
2023-01-12T11:02:51.641Z,12.07
2023-01-12T11:03:55.332Z,12.14
2023-01-12T11:04:58.254Z,12.17
2023-01-12T11:06:18.700Z,12.15
2023-01-12T11:07:22.039Z,12.16
2023-01-12T11:08:25.317Z,12.12
2023-01-12T11:09:28.149Z,12.14
2023-01-12T11:10:33.274Z,12.08
2023-01-12T11:11:35.095Z,12.08
2023-01-12T11:12:38.483Z,12.15
2023-01-12T11:13:40.203Z,12.16
2023-01-12T11:14:42.208Z,12.14
2023-01-12T11:15:53.754Z,12.10
2023-01-12T11:16:55.433Z,12.14
2023-01-12T11:17:57.231Z,12.19
2023-01-12T11:19:02.456Z,12.24
2023-01-12T11:20:04.980Z,12.20
2023-01-12T11:21:15.217Z,12.20
2023-01-12T11:22:21.152Z,12.20
2023-01-12T11:23:25.693Z,12.15
2023-01-12T11:24:34.433Z,12.13
2023-01-12T11:25:40.390Z,12.13
2023-01-12T11:26:42.337Z,12.20
2023-01-12T11:27:44.010Z,12.23
2023-01-12T11:28:47.417Z,12.24
2023-01-12T11:30:00.028Z,12.22
2023-01-12T11:31:11.038Z,12.18
2023-01-12T11:32:33.824Z,12.20
2023-01-12T11:33:35.412Z,12.13
2023-01-12T11:34:39.110Z,12.10
2023-01-12T11:35:41.899Z,12.10
2023-01-12T11:36:44.919Z,12.10
2023-01-12T11:37:47.080Z,12.10
2023-01-12T11:38:50.420Z,12.10
2023-01-12T11:39:54.239Z,12.08
2023-01-12T11:40:56.387Z,12.11
2023-01-12T11:42:17.452Z,12.09
2023-01-12T11:43:46.570Z,12.12
2023-01-12T11:45:02.303Z,12.07
2023-01-12T11:46:25.219Z,12.08
2023-01-12T11:47:28.349Z,12.13
2023-01-12T11:48:36.366Z,12.16
2023-01-12T11:49:57.212Z,12.22
2023-01-12T11:50:58.993Z,12.29
2023-01-12T11:52:02.444Z,12.30
2023-01-12T11:53:07.334Z,12.29
2023-01-12T11:54:16.787Z,12.27
2023-01-12T11:55:22.014Z,12.23
2023-01-12T11:56:32.598Z,12.24
2023-01-12T11:57:53.224Z,12.25
2023-01-12T11:59:18.772Z,12.24
2023-01-12T12:00:39.325Z,12.23
2023-01-12T12:01:59.944Z,12.28
2023-01-12T12:03:05.720Z,12.27
2023-01-12T12:04:27.712Z,12.28
2023-01-12T12:05:43.141Z,12.30
2023-01-12T12:07:01.784Z,12.33
2023-01-12T12:08:29.951Z,12.34
2023-01-12T12:09:34.412Z,12.25
2023-01-12T12:10:35.951Z,12.23
2023-01-12T12:11:43.357Z,12.23
2023-01-12T12:12:48.455Z,12.27
2023-01-12T12:14:00.282Z,12.25
2023-01-12T12:15:01.948Z,12.28
2023-01-12T12:16:24.117Z,12.30
2023-01-12T12:17:28.589Z,12.29
2023-01-12T12:18:32.354Z,12.35
2023-01-12T12:19:54.249Z,12.35
2023-01-12T12:21:22.474Z,12.38
2023-01-12T12:22:27.578Z,12.48
2023-01-12T12:23:29.150Z,12.44
2023-01-12T12:24:31.782Z,12.48
2023-01-12T12:25:42.355Z,12.51
2023-01-12T12:26:45.007Z,12.53
2023-01-12T12:27:49.916Z,12.49
2023-01-12T12:29:09.807Z,12.49
2023-01-12T12:30:18.285Z,12.53
2023-01-12T12:31:21.291Z,12.52
2023-01-12T12:32:41.886Z,12.52
2023-01-12T12:33:46.376Z,12.54
2023-01-12T12:34:55.137Z,12.53
2023-01-12T12:36:31.693Z,12.55
2023-01-12T12:37:36.158Z,12.52
2023-01-12T12:38:38.562Z,12.48
2023-01-12T12:39:40.092Z,12.46
2023-01-12T12:41:42.694Z,12.52
2023-01-12T12:43:04.211Z,12.48
2023-01-12T12:44:39.765Z,12.46
2023-01-12T12:45:59.832Z,12.50
2023-01-12T12:47:08.089Z,12.48
2023-01-12T12:48:20.620Z,12.45
2023-01-12T12:49:23.841Z,12.44
2023-01-12T12:50:27.911Z,12.49
2023-01-12T12:51:30.263Z,12.53
2023-01-12T12:52:36.105Z,12.58
2023-01-12T12:53:40.832Z,12.64
2023-01-12T12:54:44.041Z,12.67
2023-01-12T12:55:47.135Z,12.66
2023-01-12T12:56:49.052Z,12.67
2023-01-12T12:58:04.486Z,12.72
2023-01-12T12:59:07.355Z,12.77
2023-01-12T13:00:26.795Z,12.79
2023-01-12T13:01:28.601Z,12.82
2023-01-12T13:02:30.486Z,12.79
2023-01-12T13:03:41.032Z,12.73
2023-01-12T13:04:42.657Z,12.61
2023-01-12T13:05:48.247Z,12.56
2023-01-12T13:06:50.458Z,12.56
2023-01-12T13:07:52.667Z,12.57
2023-01-12T13:08:55.432Z,12.61
2023-01-12T13:10:03.180Z,12.61
2023-01-12T13:11:05.985Z,12.59
2023-01-12T13:12:07.754Z,12.61
2023-01-12T13:13:23.029Z,12.61
2023-01-12T13:14:30.651Z,12.68
2023-01-12T13:15:37.362Z,12.66
2023-01-12T13:16:39.206Z,12.65
2023-01-12T13:17:43.845Z,12.66
2023-01-12T13:18:53.337Z,12.71
2023-01-12T13:20:16.819Z,12.75
2023-01-12T13:21:32.897Z,12.73
2023-01-12T13:22:48.186Z,12.72
2023-01-12T13:23:51.740Z,12.72
2023-01-12T13:24:54.225Z,12.71
2023-01-12T13:25:57.417Z,12.75
2023-01-12T13:27:01.949Z,12.70
2023-01-12T13:28:04.813Z,12.71
2023-01-12T13:29:27.518Z,12.73
2023-01-12T13:30:30.949Z,12.70
2023-01-12T13:31:34.068Z,12.68
2023-01-12T13:32:36.765Z,12.71
2023-01-12T13:33:38.630Z,12.59
2023-01-12T13:34:46.623Z,12.62
2023-01-12T13:35:48.226Z,12.61
2023-01-12T13:37:09.164Z,12.65
2023-01-12T13:38:20.221Z,12.70
2023-01-12T13:39:22.065Z,12.70
2023-01-12T13:40:28.873Z,12.73
2023-01-12T13:41:52.737Z,12.70
2023-01-12T13:43:16.553Z,12.71
2023-01-12T13:44:24.798Z,12.68
2023-01-12T13:45:26.674Z,12.72
2023-01-12T13:46:32.578Z,12.78
2023-01-12T13:47:34.769Z,12.77
2023-01-12T13:48:36.662Z,12.79
2023-01-12T13:49:44.125Z,12.81
2023-01-12T13:51:07.614Z,12.82
2023-01-12T13:52:41.556Z,12.84
2023-01-12T13:53:43.886Z,12.89
2023-01-12T13:54:48.833Z,12.88
2023-01-12T13:56:00.466Z,12.82
2023-01-12T13:57:10.474Z,12.84
2023-01-12T13:58:16.635Z,12.82
2023-01-12T13:59:18.881Z,12.81
2023-01-12T14:00:22.257Z,12.78
2023-01-12T14:01:26.914Z,12.74
2023-01-12T14:02:29.336Z,12.73
2023-01-12T14:03:46.131Z,12.73
2023-01-12T14:04:51.402Z,12.82
2023-01-12T14:06:13.363Z,12.86
2023-01-12T14:07:33.593Z,12.89
2023-01-12T14:08:46.290Z,12.86
2023-01-12T14:10:16.213Z,12.85
2023-01-12T14:11:51.854Z,12.85
2023-01-12T14:13:12.447Z,12.85
2023-01-12T14:14:53.194Z,12.87
2023-01-12T14:16:19.961Z,12.94
2023-01-12T14:17:47.028Z,12.97
2023-01-12T14:18:49.047Z,12.90
2023-01-12T14:19:51.917Z,12.90
2023-01-12T14:20:56.949Z,12.87
2023-01-12T14:22:00.698Z,12.86
2023-01-12T14:23:18.878Z,12.91
2023-01-12T14:24:21.009Z,12.86
2023-01-12T14:25:25.593Z,12.85
2023-01-12T14:26:27.445Z,12.91